createdAt,value
2023-05-10T00:04:27.959Z,97992.80
2023-05-10T00:08:19.487Z,97990.60
2023-05-10T00:12:08.557Z,97989.40
2023-05-10T00:15:56.433Z,97985.00
2023-05-10T00:19:55.259Z,97980.20
2023-05-10T00:23:53.352Z,97974.00
2023-05-10T00:27:41.501Z,97976.00
2023-05-10T00:31:29.348Z,97971.80
2023-05-10T00:35:20.537Z,97970.60
2023-05-10T00:38:45.820Z,97976.40
2023-05-10T00:42:36.846Z,97971.00
2023-05-10T00:46:47.452Z,97974.00
2023-05-10T00:50:45.304Z,97976.40
2023-05-10T00:54:36.464Z,97972.20
2023-05-10T00:59:03.458Z,97967.40
2023-05-10T01:03:06.122Z,97967.60
2023-05-10T01:07:14.490Z,97964.00
2023-05-10T01:11:23.312Z,97963.00
2023-05-10T01:15:22.323Z,97962.60
2023-05-10T01:19:42.668Z,97953.20
2023-05-10T01:23:24.524Z,97948.40
2023-05-10T01:27:37.528Z,97942.80
2023-05-10T01:31:43.325Z,97940.40
2023-05-10T01:36:08.837Z,97943.60
2023-05-10T01:39:33.359Z,97947.00
2023-05-10T01:43:34.641Z,97944.80
2023-05-10T01:47:35.588Z,97948.40
2023-05-10T01:51:49.114Z,97953.80
2023-05-10T01:55:38.175Z,97945.80
2023-05-10T01:59:27.303Z,97946.00
2023-05-10T02:03:18.995Z,97943.00
2023-05-10T02:07:08.221Z,97947.20
2023-05-10T02:10:42.625Z,97941.20
2023-05-10T02:14:17.706Z,97935.60
2023-05-10T02:18:06.875Z,97935.00
2023-05-10T02:21:57.947Z,97937.80
2023-05-10T02:25:26.690Z,97934.60
2023-05-10T02:29:15.912Z,97938.20
2023-05-10T02:33:06.148Z,97940.20
2023-05-10T02:36:55.316Z,97944.60
2023-05-10T02:40:44.538Z,97938.00
2023-05-10T02:44:33.830Z,97940.60
2023-05-10T02:48:26.833Z,97936.40
2023-05-10T02:56:44.781Z,97933.20
2023-05-10T03:00:35.920Z,97927.80
2023-05-10T03:04:27.313Z,97926.00
2023-05-10T03:08:16.571Z,97925.80
2023-05-10T03:11:56.445Z,97922.40
2023-05-10T03:16:18.810Z,97922.60
2023-05-10T03:20:14.323Z,97922.60
2023-05-10T03:24:16.619Z,97919.80
2023-05-10T03:28:05.927Z,97918.60
2023-05-10T03:32:01.669Z,97915.60
2023-05-10T03:35:54.961Z,97912.20
2023-05-10T03:40:08.461Z,97914.80
2023-05-10T03:43:56.558Z,97921.00
2023-05-10T03:47:45.790Z,97913.20
2023-05-10T03:51:34.937Z,97911.40
2023-05-10T03:55:16.808Z,97908.40
2023-05-10T03:59:06.737Z,97909.20
2023-05-10T04:02:57.013Z,97906.20
2023-05-10T04:06:46.158Z,97904.60
2023-05-10T04:10:34.066Z,97908.00
2023-05-10T04:14:23.237Z,97905.40
2023-05-10T04:18:15.513Z,97902.80
2023-05-10T04:22:04.639Z,97897.40
2023-05-10T04:25:53.581Z,97905.60
2023-05-10T04:29:42.391Z,97904.40
2023-05-10T04:33:31.608Z,97907.40
2023-05-10T04:37:21.790Z,97902.20
2023-05-10T04:41:13.856Z,97902.00
2023-05-10T04:45:17.562Z,97899.40
2023-05-10T04:49:08.163Z,97897.40
2023-05-10T04:53:07.325Z,97896.80
2023-05-10T04:56:56.224Z,97909.60
2023-05-10T05:00:45.456Z,97903.40
2023-05-10T05:04:37.545Z,97906.80
2023-05-10T05:08:07.315Z,97904.60
2023-05-10T05:11:56.615Z,97907.00
2023-05-10T05:15:46.522Z,97904.60
2023-05-10T05:19:40.053Z,97899.80
2023-05-10T05:23:29.330Z,97899.80
2023-05-10T05:27:42.071Z,97898.00
2023-05-10T05:31:32.500Z,97899.00
2023-05-10T05:35:16.239Z,97895.20
2023-05-10T05:39:07.592Z,97895.40
2023-05-10T05:42:58.054Z,97898.40
2023-05-10T05:46:47.101Z,97896.20
2023-05-10T05:50:36.302Z,97898.20
2023-05-10T05:54:19.149Z,97897.80
2023-05-10T05:58:08.548Z,97901.00
2023-05-10T06:01:57.649Z,97904.80
2023-05-10T06:05:46.956Z,97904.60
2023-05-10T06:09:37.317Z,97904.00
2023-05-10T06:13:27.551Z,97902.00
2023-05-10T06:17:16.788Z,97902.40
2023-05-10T06:21:07.295Z,97900.60
2023-05-10T06:24:58.234Z,97899.60
2023-05-10T06:28:27.985Z,97900.60
2023-05-10T06:32:10.717Z,97901.00
2023-05-10T06:36:00.523Z,97897.40
2023-05-10T06:39:49.676Z,97893.60
2023-05-10T06:43:38.036Z,97896.40
2023-05-10T06:47:27.135Z,97892.40
2023-05-10T06:51:16.335Z,97893.60
2023-05-10T06:55:06.465Z,97898.20
2023-05-10T06:58:55.556Z,97895.80
2023-05-10T07:02:44.551Z,97896.20
2023-05-10T07:06:33.276Z,97898.00
2023-05-10T07:10:23.191Z,97895.20
2023-05-10T07:14:14.432Z,97887.00
2023-05-10T07:18:20.462Z,97887.20
2023-05-10T07:22:16.257Z,97887.40
2023-05-10T07:26:05.098Z,97890.00
2023-05-10T07:29:54.160Z,97891.80
2023-05-10T07:33:28.841Z,97891.20
2023-05-10T07:37:18.269Z,97891.40
2023-05-10T07:41:07.700Z,97888.80
2023-05-10T07:44:55.489Z,97888.20
2023-05-10T07:48:37.458Z,97891.60
2023-05-10T07:52:26.471Z,97881.60
2023-05-10T07:56:16.789Z,97886.00
2023-05-10T07:59:58.729Z,97882.80
2023-05-10T08:03:49.810Z,97881.80
2023-05-10T08:07:16.980Z,97885.40
2023-05-10T08:11:06.308Z,97880.00
2023-05-10T08:14:58.149Z,97886.40
2023-05-10T08:23:15.451Z,97877.00
2023-05-10T08:27:05.115Z,97872.60
2023-05-10T08:30:40.442Z,97867.00
2023-05-10T08:34:31.183Z,97868.00
2023-05-10T08:38:20.284Z,97875.20
2023-05-10T08:42:03.382Z,97872.40
2023-05-10T08:45:52.432Z,97862.60
2023-05-10T08:49:42.710Z,97871.00
2023-05-10T08:53:31.806Z,97863.80
2023-05-10T08:57:21.031Z,97859.60
2023-05-10T09:01:03.309Z,97857.40
2023-05-10T09:04:52.692Z,97858.80
2023-05-10T09:08:41.839Z,97856.20
2023-05-10T09:12:30.202Z,97852.00
2023-05-10T09:16:21.640Z,97846.40
2023-05-10T09:20:10.302Z,97844.20
2023-05-10T09:23:59.652Z,97833.20
2023-05-10T09:27:45.751Z,97837.20
2023-05-10T09:31:34.975Z,97829.20
2023-05-10T09:35:29.353Z,97828.20
2023-05-10T09:39:16.070Z,97830.60
2023-05-10T09:43:05.400Z,97804.60
2023-05-10T09:46:48.038Z,97828.40
2023-05-10T09:50:37.458Z,97811.20
2023-05-10T09:53:54.469Z,97801.20
2023-05-10T09:57:15.929Z,97797.80
2023-05-10T10:01:06.825Z,97811.80
2023-05-10T10:04:43.692Z,97798.20
2023-05-10T10:13:00.459Z,97799.40
2023-05-10T10:15:57.011Z,97796.20
2023-05-10T10:19:26.036Z,97776.60
2023-05-10T10:22:50.643Z,97792.40
2023-05-10T10:25:55.177Z,97769.00
2023-05-10T10:29:33.252Z,97785.20
2023-05-10T10:32:38.212Z,97780.80
2023-05-10T10:35:35.658Z,97778.00
2023-05-10T10:39:04.686Z,97771.80
2023-05-10T10:42:53.876Z,97754.80
2023-05-10T10:46:25.966Z,97754.20
2023-05-10T10:49:22.534Z,97733.80
2023-05-10T10:52:56.903Z,97736.60
2023-05-10T10:56:35.217Z,97730.40
2023-05-10T10:59:49.233Z,97728.40
2023-05-10T11:02:44.210Z,97736.80
2023-05-10T11:05:57.475Z,97722.00
2023-05-10T11:08:43.025Z,97726.60
2023-05-10T11:11:28.244Z,97730.20
2023-05-10T11:13:56.645Z,97727.80
2023-05-10T11:16:30.528Z,97714.40
2023-05-10T11:19:03.726Z,97728.00
2023-05-10T11:21:32.562Z,97713.20
2023-05-10T11:24:18.657Z,97713.80
2023-05-10T11:27:11.924Z,97704.00
2023-05-10T11:29:40.569Z,97703.00
2023-05-10T11:32:38.355Z,97699.20
2023-05-10T11:35:17.884Z,97703.60
2023-05-10T11:37:49.251Z,97695.80
2023-05-10T11:40:18.133Z,97705.80
2023-05-10T11:42:51.540Z,97712.00
2023-05-10T11:45:25.399Z,97699.00
2023-05-10T11:48:23.362Z,97704.60
2023-05-10T11:51:10.157Z,97682.40
2023-05-10T11:54:15.453Z,97692.80
2023-05-10T11:56:46.636Z,97684.80
2023-05-10T11:59:15.905Z,97693.20
2023-05-10T12:01:43.996Z,97696.40
2023-05-10T12:04:18.694Z,97694.80
2023-05-10T12:07:04.232Z,97688.20
2023-05-10T12:10:03.628Z,97672.80
2023-05-10T12:12:46.755Z,97685.80
2023-05-10T12:15:24.711Z,97668.60
2023-05-10T12:17:53.120Z,97677.00
2023-05-10T12:20:22.509Z,97680.00
2023-05-10T12:23:13.911Z,97676.40
2023-05-10T12:25:55.002Z,97659.20
2023-05-10T12:28:23.513Z,97664.40
2023-05-10T12:31:40.421Z,97675.20
2023-05-10T12:34:49.307Z,97663.80
2023-05-10T12:37:17.980Z,97669.80
2023-05-10T12:40:20.807Z,97660.20
2023-05-10T12:43:54.971Z,97651.60
2023-05-10T12:46:45.455Z,97660.40
2023-05-10T12:50:21.064Z,97657.80
2023-05-10T12:53:44.320Z,97633.40
2023-05-10T12:57:17.709Z,97645.20
2023-05-10T13:00:28.308Z,97637.40
2023-05-10T13:03:57.313Z,97628.00
2023-05-10T13:06:59.817Z,97630.40
2023-05-10T13:10:34.903Z,97625.00
2023-05-10T13:13:46.093Z,97620.20
2023-05-10T13:16:34.640Z,97619.00
2023-05-10T13:19:03.035Z,97621.60
2023-05-10T13:21:31.542Z,97626.00
2023-05-10T13:23:59.912Z,97612.00
2023-05-10T13:26:28.403Z,97611.80
2023-05-10T13:28:56.826Z,97616.00
2023-05-10T13:31:34.641Z,97612.40
2023-05-10T13:34:46.958Z,97614.40
2023-05-10T13:38:21.053Z,97604.60
2023-05-10T13:41:52.047Z,97614.60
2023-05-10T13:44:57.988Z,97609.80
2023-05-10T13:48:09.508Z,97610.40
2023-05-10T13:51:36.140Z,97611.00
2023-05-10T13:55:15.668Z,97601.00
2023-05-10T13:58:44.740Z,97603.20
2023-05-10T14:02:26.630Z,97592.80
2023-05-10T14:05:37.968Z,97592.40
2023-05-10T14:09:01.013Z,97589.20
2023-05-10T14:12:23.812Z,97571.60
2023-05-10T14:15:39.825Z,97565.60
2023-05-10T14:19:28.951Z,97572.20
2023-05-10T14:22:48.174Z,97573.40
2023-05-10T14:26:06.491Z,97570.20
2023-05-10T14:28:45.372Z,97570.60
2023-05-10T14:31:27.317Z,97570.20
2023-05-10T14:34:01.330Z,97564.20
2023-05-10T14:37:06.380Z,97573.00
2023-05-10T14:40:31.717Z,97570.40
2023-05-10T14:43:33.720Z,97561.60
2023-05-10T14:46:26.380Z,97564.60
2023-05-10T14:49:35.481Z,97575.60
2023-05-10T14:52:39.211Z,97581.40
2023-05-10T14:55:51.838Z,97581.00
2023-05-10T14:58:56.593Z,97587.00
2023-05-10T15:02:39.127Z,97603.80
2023-05-10T15:06:02.810Z,97585.00
2023-05-10T15:09:33.432Z,97588.40
2023-05-10T15:12:57.071Z,97594.20
2023-05-10T15:16:52.146Z,97582.60
2023-05-10T15:20:27.208Z,97580.60
2023-05-10T15:23:39.182Z,97579.00
2023-05-10T15:27:14.030Z,97582.00
2023-05-10T15:30:44.137Z,97588.80
2023-05-10T15:34:11.071Z,97590.20
2023-05-10T15:37:52.767Z,97589.40
2023-05-10T15:41:27.110Z,97592.40
2023-05-10T15:45:05.570Z,97595.40
2023-05-10T15:48:40.584Z,97586.00
2023-05-10T15:52:00.172Z,97592.00
2023-05-10T15:55:16.798Z,97609.80
2023-05-10T15:58:35.650Z,97604.40
2023-05-10T16:02:07.786Z,97602.80
2023-05-10T16:05:46.880Z,97610.40
2023-05-10T16:09:36.184Z,97601.80
2023-05-10T16:13:20.283Z,97597.00
2023-05-10T16:16:51.627Z,97598.00
2023-05-10T16:20:38.545Z,97605.00
2023-05-10T16:24:11.707Z,97601.00
2023-05-10T16:27:49.859Z,97609.00
2023-05-10T16:31:32.063Z,97614.80
2023-05-10T16:35:21.333Z,97613.40
2023-05-10T16:39:10.564Z,97611.00
2023-05-10T16:42:38.109Z,97614.40
2023-05-10T16:46:29.729Z,97627.40
2023-05-10T16:50:03.970Z,97614.40
2023-05-10T16:53:53.103Z,97627.40
2023-05-10T16:57:26.066Z,97633.40
2023-05-10T17:01:15.737Z,97639.00
2023-05-10T17:05:04.886Z,97642.20
2023-05-10T17:08:52.688Z,97643.00
2023-05-10T17:12:33.201Z,97644.60
2023-05-10T17:15:55.719Z,97652.80
2023-05-10T17:19:35.358Z,97660.20
2023-05-10T17:23:17.311Z,97661.80
2023-05-10T17:26:52.048Z,97662.60
2023-05-10T17:30:39.885Z,97664.80
2023-05-10T17:34:28.950Z,97666.80
2023-05-10T17:37:58.301Z,97669.60
2023-05-10T17:41:42.434Z,97664.20
2023-05-10T17:45:23.984Z,97672.80
2023-05-10T17:48:53.822Z,97665.40
2023-05-10T17:52:43.076Z,97671.60
2023-05-10T17:56:30.058Z,97670.20
2023-05-10T18:00:17.174Z,97678.00
2023-05-10T18:03:49.724Z,97680.80
2023-05-10T18:07:38.746Z,97682.60
2023-05-10T18:11:27.922Z,97683.40
2023-05-10T18:15:00.982Z,97690.20
2023-05-10T18:18:27.693Z,97696.00
2023-05-10T18:22:10.877Z,97697.60
2023-05-10T18:25:39.821Z,97704.40
2023-05-10T18:29:15.742Z,97710.80
2023-05-10T18:33:04.679Z,97706.80
2023-05-10T18:36:46.290Z,97715.20
2023-05-10T18:40:30.816Z,97717.60
2023-05-10T18:44:19.810Z,97717.20
2023-05-10T18:48:08.971Z,97722.20
2023-05-10T18:51:50.550Z,97719.60
2023-05-10T18:55:24.953Z,97724.60
2023-05-10T18:59:13.673Z,97725.40
2023-05-10T19:03:02.776Z,97724.60
2023-05-10T19:06:51.920Z,97730.60
2023-05-10T19:10:41.060Z,97731.60
2023-05-10T19:14:29.060Z,97734.80
2023-05-10T19:18:18.958Z,97736.60
2023-05-10T19:22:10.157Z,97741.00
2023-05-10T19:26:01.103Z,97746.60
2023-05-10T19:29:33.056Z,97749.00
2023-05-10T19:33:28.466Z,97745.60
2023-05-10T19:37:16.592Z,97753.20
2023-05-10T19:41:07.178Z,97755.60
2023-05-10T19:44:42.070Z,97753.20
2023-05-10T19:48:34.476Z,97758.60
2023-05-10T19:52:23.657Z,97755.80
2023-05-10T19:56:13.612Z,97752.00
2023-05-10T19:59:45.754Z,97746.00
2023-05-10T20:03:34.857Z,97753.40
2023-05-10T20:07:16.610Z,97752.20
2023-05-10T20:11:04.339Z,97756.20
2023-05-10T20:14:53.355Z,97753.00
2023-05-10T20:18:35.360Z,97755.80
2023-05-10T20:22:24.719Z,97752.80
2023-05-10T20:26:16.418Z,97757.60
2023-05-10T20:30:05.687Z,97756.40
2023-05-10T20:33:55.678Z,97759.20
2023-05-10T20:37:45.996Z,97764.80
2023-05-10T20:41:28.091Z,97758.60
2023-05-10T20:45:10.152Z,97768.00
2023-05-10T20:48:59.675Z,97761.60
2023-05-10T20:52:49.899Z,97762.80
2023-05-10T20:56:41.067Z,97760.00
2023-05-10T21:00:37.369Z,97770.60
2023-05-10T21:04:16.682Z,97771.20
2023-05-10T21:21:02.850Z,97776.20
2023-05-10T21:24:51.868Z,97779.00
2023-05-10T21:28:41.165Z,97772.40
2023-05-10T21:32:30.449Z,97780.20
2023-05-10T21:40:08.711Z,97778.40
2023-05-10T21:43:57.795Z,97788.00
2023-05-10T21:47:49.133Z,97795.00
2023-05-10T21:51:39.082Z,97793.00
2023-05-10T21:55:29.443Z,97794.00
2023-05-10T21:59:19.749Z,97796.20
2023-05-10T22:03:09.745Z,97786.40
2023-05-10T22:06:58.850Z,97797.40
2023-05-10T22:10:48.159Z,97804.00
2023-05-10T22:14:37.248Z,97807.40
2023-05-10T22:18:26.459Z,97807.60
2023-05-10T22:22:17.850Z,97811.60
2023-05-10T22:26:07.191Z,97813.60
2023-05-10T22:29:56.689Z,97817.80
2023-05-10T22:33:46.644Z,97812.20
2023-05-10T22:37:35.983Z,97813.20
2023-05-10T22:42:12.016Z,97815.00
2023-05-10T22:45:37.640Z,97812.60
2023-05-10T22:49:29.031Z,97815.00
2023-05-10T22:53:19.073Z,97810.40
2023-05-10T22:57:08.309Z,97800.00
2023-05-10T23:00:57.571Z,97801.20
2023-05-10T23:04:55.965Z,97799.00
2023-05-10T23:08:46.427Z,97802.20
2023-05-10T23:12:35.766Z,97806.60
2023-05-10T23:16:26.254Z,97805.20
2023-05-10T23:20:16.432Z,97799.60
2023-05-10T23:23:58.811Z,97806.00
2023-05-10T23:27:37.079Z,97804.80
2023-05-10T23:31:27.360Z,97803.80
2023-05-10T23:35:16.873Z,97805.60
2023-05-10T23:39:05.981Z,97805.20
2023-05-10T23:42:56.104Z,97803.80
2023-05-10T23:46:45.258Z,97806.40
2023-05-10T23:50:35.886Z,97803.80
2023-05-10T23:54:26.856Z,97800.40
2023-05-10T23:58:16.080Z,97802.80
